sensor_id;sensor_type;location;lat;lon;timestamp;P1;durP1;ratioP1;P2;durP2;ratioP2
50231;SDS011;36118;56.468;84.952;2023-08-06T00:02:27;13.63;;;2.60;;
50231;SDS011;36118;56.468;84.952;2023-08-06T00:07:30;9.80;;;2.83;;
50231;SDS011;36118;56.468;84.952;2023-08-06T00:12:33;6.72;;;2.35;;
50231;SDS011;36118;56.468;84.952;2023-08-06T00:17:36;6.40;;;2.80;;
50231;SDS011;36118;56.468;84.952;2023-08-06T00:22:39;8.15;;;2.92;;
50231;SDS011;36118;56.468;84.952;2023-08-06T00:27:42;10.35;;;3.13;;
50231;SDS011;36118;56.468;84.952;2023-08-06T00:32:44;11.80;;;3.72;;
50231;SDS011;36118;56.468;84.952;2023-08-06T00:37:47;8.85;;;4.32;;
50231;SDS011;36118;56.468;84.952;2023-08-06T00:42:51;10.52;;;4.90;;
50231;SDS011;36118;56.468;84.952;2023-08-06T00:47:54;10.73;;;4.32;;
50231;SDS011;36118;56.468;84.952;2023-08-06T00:52:57;10.93;;;4.95;;
50231;SDS011;36118;56.468;84.952;2023-08-06T00:58:01;13.38;;;5.45;;
50231;SDS011;36118;56.468;84.952;2023-08-06T01:03:03;10.82;;;6.32;;
50231;SDS011;36118;56.468;84.952;2023-08-06T01:14:08;13.43;;;7.93;;
50231;SDS011;36118;56.468;84.952;2023-08-06T01:18:53;16.38;;;7.10;;
50231;SDS011;36118;56.468;84.952;2023-08-06T01:23:56;16.08;;;6.90;;
50231;SDS011;36118;56.468;84.952;2023-08-06T01:29:07;9.27;;;6.35;;
50231;SDS011;36118;56.468;84.952;2023-08-06T01:34:22;9.70;;;6.32;;
50231;SDS011;36118;56.468;84.952;2023-08-06T01:39:27;10.85;;;6.28;;
50231;SDS011;36118;56.468;84.952;2023-08-06T01:44:30;10.82;;;6.30;;
50231;SDS011;36118;56.468;84.952;2023-08-06T01:49:34;12.88;;;6.35;;
50231;SDS011;36118;56.468;84.952;2023-08-06T01:54:37;15.48;;;7.65;;
50231;SDS011;36118;56.468;84.952;2023-08-06T01:59:40;12.85;;;7.03;;
50231;SDS011;36118;56.468;84.952;2023-08-06T02:04:43;14.85;;;7.60;;
50231;SDS011;36118;56.468;84.952;2023-08-06T02:09:47;11.40;;;4.97;;
50231;SDS011;36118;56.468;84.952;2023-08-06T02:14:50;14.75;;;4.35;;
50231;SDS011;36118;56.468;84.952;2023-08-06T02:19:53;7.75;;;3.28;;
50231;SDS011;36118;56.468;84.952;2023-08-06T02:24:56;8.55;;;5.05;;
50231;SDS011;36118;56.468;84.952;2023-08-06T02:29:59;9.65;;;3.70;;
50231;SDS011;36118;56.468;84.952;2023-08-06T02:35:03;10.30;;;5.47;;
50231;SDS011;36118;56.468;84.952;2023-08-06T02:40:06;9.15;;;5.50;;
50231;SDS011;36118;56.468;84.952;2023-08-06T02:45:10;15.32;;;6.05;;
50231;SDS011;36118;56.468;84.952;2023-08-06T02:50:14;14.15;;;5.25;;
50231;SDS011;36118;56.468;84.952;2023-08-06T02:55:17;10.40;;;5.65;;
50231;SDS011;36118;56.468;84.952;2023-08-06T03:00:22;9.57;;;4.78;;
50231;SDS011;36118;56.468;84.952;2023-08-06T03:05:26;11.05;;;3.90;;
50231;SDS011;36118;56.468;84.952;2023-08-06T03:10:29;8.68;;;3.88;;
50231;SDS011;36118;56.468;84.952;2023-08-06T03:15:36;7.25;;;3.10;;
50231;SDS011;36118;56.468;84.952;2023-08-06T03:20:39;10.43;;;3.78;;
50231;SDS011;36118;56.468;84.952;2023-08-06T03:25:42;10.23;;;4.03;;
50231;SDS011;36118;56.468;84.952;2023-08-06T03:30:47;8.27;;;3.60;;
50231;SDS011;36118;56.468;84.952;2023-08-06T03:35:51;8.40;;;2.88;;
50231;SDS011;36118;56.468;84.952;2023-08-06T03:40:54;8.25;;;2.85;;
50231;SDS011;36118;56.468;84.952;2023-08-06T03:45:57;8.90;;;2.70;;
50231;SDS011;36118;56.468;84.952;2023-08-06T03:51:00;5.22;;;1.52;;
50231;SDS011;36118;56.468;84.952;2023-08-06T03:56:04;3.55;;;1.67;;
50231;SDS011;36118;56.468;84.952;2023-08-06T04:01:08;5.53;;;1.80;;
50231;SDS011;36118;56.468;84.952;2023-08-06T04:06:17;5.25;;;1.90;;
50231;SDS011;36118;56.468;84.952;2023-08-06T04:11:20;5.47;;;2.00;;
50231;SDS011;36118;56.468;84.952;2023-08-06T04:16:22;3.05;;;1.85;;
50231;SDS011;36118;56.468;84.952;2023-08-06T04:21:26;4.30;;;2.17;;
50231;SDS011;36118;56.468;84.952;2023-08-06T04:26:29;6.80;;;2.15;;
50231;SDS011;36118;56.468;84.952;2023-08-06T04:31:32;4.07;;;2.13;;
50231;SDS011;36118;56.468;84.952;2023-08-06T04:36:36;5.10;;;2.17;;
50231;SDS011;36118;56.468;84.952;2023-08-06T04:41:43;4.88;;;2.55;;
50231;SDS011;36118;56.468;84.952;2023-08-06T04:46:46;4.20;;;2.10;;
50231;SDS011;36118;56.468;84.952;2023-08-06T04:51:49;3.78;;;2.20;;
50231;SDS011;36118;56.468;84.952;2023-08-06T04:56:53;4.35;;;2.38;;
50231;SDS011;36118;56.468;84.952;2023-08-06T05:01:56;5.20;;;2.60;;
50231;SDS011;36118;56.468;84.952;2023-08-06T05:06:59;4.22;;;2.22;;
50231;SDS011;36118;56.468;84.952;2023-08-06T05:12:03;4.78;;;2.33;;
50231;SDS011;36118;56.468;84.952;2023-08-06T05:17:06;4.28;;;2.20;;
50231;SDS011;36118;56.468;84.952;2023-08-06T05:22:09;3.63;;;2.00;;
50231;SDS011;36118;56.468;84.952;2023-08-06T05:27:13;5.75;;;2.03;;
50231;SDS011;36118;56.468;84.952;2023-08-06T05:32:15;6.20;;;3.10;;
50231;SDS011;36118;56.468;84.952;2023-08-06T05:37:19;7.28;;;3.10;;
50231;SDS011;36118;56.468;84.952;2023-08-06T05:42:22;6.65;;;3.03;;
50231;SDS011;36118;56.468;84.952;2023-08-06T05:47:24;8.70;;;3.00;;
50231;SDS011;36118;56.468;84.952;2023-08-06T05:52:27;7.95;;;3.03;;
50231;SDS011;36118;56.468;84.952;2023-08-06T05:57:31;7.28;;;3.13;;
50231;SDS011;36118;56.468;84.952;2023-08-06T06:02:34;5.88;;;2.42;;
50231;SDS011;36118;56.468;84.952;2023-08-06T06:07:37;5.90;;;3.05;;
50231;SDS011;36118;56.468;84.952;2023-08-06T06:12:42;5.70;;;2.90;;
50231;SDS011;36118;56.468;84.952;2023-08-06T06:17:44;7.18;;;3.22;;
50231;SDS011;36118;56.468;84.952;2023-08-06T06:22:48;5.22;;;2.83;;
50231;SDS011;36118;56.468;84.952;2023-08-06T06:27:51;6.93;;;2.78;;
50231;SDS011;36118;56.468;84.952;2023-08-06T06:32:54;5.07;;;2.78;;
50231;SDS011;36118;56.468;84.952;2023-08-06T06:37:57;6.55;;;3.20;;
50231;SDS011;36118;56.468;84.952;2023-08-06T06:43:00;8.43;;;3.08;;
50231;SDS011;36118;56.468;84.952;2023-08-06T06:48:03;6.05;;;3.40;;
50231;SDS011;36118;56.468;84.952;2023-08-06T06:53:08;4.45;;;2.58;;
50231;SDS011;36118;56.468;84.952;2023-08-06T06:58:10;4.95;;;2.78;;
50231;SDS011;36118;56.468;84.952;2023-08-06T07:03:14;6.80;;;3.10;;
50231;SDS011;36118;56.468;84.952;2023-08-06T07:08:18;6.43;;;3.28;;
50231;SDS011;36118;56.468;84.952;2023-08-06T07:13:22;5.07;;;3.28;;
50231;SDS011;36118;56.468;84.952;2023-08-06T07:18:25;5.70;;;3.25;;
50231;SDS011;36118;56.468;84.952;2023-08-06T07:23:29;6.35;;;3.13;;
50231;SDS011;36118;56.468;84.952;2023-08-06T07:28:32;7.05;;;3.63;;
50231;SDS011;36118;56.468;84.952;2023-08-06T07:33:36;6.72;;;3.47;;
50231;SDS011;36118;56.468;84.952;2023-08-06T07:38:39;5.78;;;3.40;;
50231;SDS011;36118;56.468;84.952;2023-08-06T07:43:43;6.57;;;3.25;;
50231;SDS011;36118;56.468;84.952;2023-08-06T07:48:46;6.88;;;3.20;;
50231;SDS011;36118;56.468;84.952;2023-08-06T07:53:50;5.55;;;3.42;;
50231;SDS011;36118;56.468;84.952;2023-08-06T07:58:54;5.18;;;3.30;;
50231;SDS011;36118;56.468;84.952;2023-08-06T08:03:57;7.82;;;3.50;;
50231;SDS011;36118;56.468;84.952;2023-08-06T08:09:04;10.90;;;6.68;;
50231;SDS011;36118;56.468;84.952;2023-08-06T08:14:07;5.97;;;3.33;;
50231;SDS011;36118;56.468;84.952;2023-08-06T08:19:10;6.55;;;3.30;;
50231;SDS011;36118;56.468;84.952;2023-08-06T08:24:13;5.72;;;3.47;;
50231;SDS011;36118;56.468;84.952;2023-08-06T08:29:16;6.10;;;3.65;;
50231;SDS011;36118;56.468;84.952;2023-08-06T08:34:19;7.60;;;3.90;;
50231;SDS011;36118;56.468;84.952;2023-08-06T08:39:23;8.77;;;4.30;;
50231;SDS011;36118;56.468;84.952;2023-08-06T08:44:27;6.70;;;4.10;;
50231;SDS011;36118;56.468;84.952;2023-08-06T08:49:31;7.00;;;3.80;;
50231;SDS011;36118;56.468;84.952;2023-08-06T08:54:36;6.40;;;3.80;;
50231;SDS011;36118;56.468;84.952;2023-08-06T08:59:40;6.75;;;3.90;;
50231;SDS011;36118;56.468;84.952;2023-08-06T09:04:44;7.93;;;3.70;;
50231;SDS011;36118;56.468;84.952;2023-08-06T09:09:49;7.28;;;4.00;;
50231;SDS011;36118;56.468;84.952;2023-08-06T09:14:53;6.15;;;3.50;;
50231;SDS011;36118;56.468;84.952;2023-08-06T09:19:57;9.60;;;4.00;;
50231;SDS011;36118;56.468;84.952;2023-08-06T09:25:00;6.05;;;3.97;;
50231;SDS011;36118;56.468;84.952;2023-08-06T09:30:05;7.60;;;4.20;;
50231;SDS011;36118;56.468;84.952;2023-08-06T09:35:10;7.03;;;4.22;;
50231;SDS011;36118;56.468;84.952;2023-08-06T09:40:29;8.63;;;4.78;;
50231;SDS011;36118;56.468;84.952;2023-08-06T09:45:35;8.45;;;4.90;;
50231;SDS011;36118;56.468;84.952;2023-08-06T09:50:40;8.52;;;4.80;;
50231;SDS011;36118;56.468;84.952;2023-08-06T09:55:43;7.88;;;4.80;;
50231;SDS011;36118;56.468;84.952;2023-08-06T10:00:48;7.85;;;5.07;;
50231;SDS011;36118;56.468;84.952;2023-08-06T10:05:51;9.57;;;5.00;;
50231;SDS011;36118;56.468;84.952;2023-08-06T10:10:55;8.25;;;5.15;;
50231;SDS011;36118;56.468;84.952;2023-08-06T10:15:59;8.50;;;5.30;;
50231;SDS011;36118;56.468;84.952;2023-08-06T10:21:08;10.25;;;5.15;;
50231;SDS011;36118;56.468;84.952;2023-08-06T10:26:12;10.60;;;5.25;;
50231;SDS011;36118;56.468;84.952;2023-08-06T10:31:19;9.00;;;4.80;;
50231;SDS011;36118;56.468;84.952;2023-08-06T10:36:23;7.63;;;4.82;;
50231;SDS011;36118;56.468;84.952;2023-08-06T10:41:29;7.88;;;5.15;;
50231;SDS011;36118;56.468;84.952;2023-08-06T10:46:33;6.22;;;4.05;;
50231;SDS011;36118;56.468;84.952;2023-08-06T10:51:37;10.32;;;5.28;;
50231;SDS011;36118;56.468;84.952;2023-08-06T10:56:41;6.68;;;4.60;;
50231;SDS011;36118;56.468;84.952;2023-08-06T11:01:45;9.38;;;5.47;;
50231;SDS011;36118;56.468;84.952;2023-08-06T11:06:52;11.73;;;5.28;;
50231;SDS011;36118;56.468;84.952;2023-08-06T11:11:55;9.73;;;4.72;;
50231;SDS011;36118;56.468;84.952;2023-08-06T11:16:59;11.13;;;6.32;;
50231;SDS011;36118;56.468;84.952;2023-08-06T11:22:03;11.75;;;5.90;;
50231;SDS011;36118;56.468;84.952;2023-08-06T11:27:14;10.40;;;5.38;;
50231;SDS011;36118;56.468;84.952;2023-08-06T11:32:18;9.45;;;5.35;;
50231;SDS011;36118;56.468;84.952;2023-08-06T11:37:21;7.30;;;4.72;;
50231;SDS011;36118;56.468;84.952;2023-08-06T11:42:30;7.95;;;5.45;;
50231;SDS011;36118;56.468;84.952;2023-08-06T11:52:38;10.05;;;5.30;;
50231;SDS011;36118;56.468;84.952;2023-08-06T11:57:44;12.77;;;5.40;;
50231;SDS011;36118;56.468;84.952;2023-08-06T12:02:47;10.65;;;5.65;;
50231;SDS011;36118;56.468;84.952;2023-08-06T12:07:54;9.55;;;5.22;;
50231;SDS011;36118;56.468;84.952;2023-08-06T12:12:59;10.75;;;5.18;;
50231;SDS011;36118;56.468;84.952;2023-08-06T12:18:02;14.38;;;5.72;;
50231;SDS011;36118;56.468;84.952;2023-08-06T12:23:07;16.75;;;5.25;;
50231;SDS011;36118;56.468;84.952;2023-08-06T12:28:14;7.60;;;4.95;;
50231;SDS011;36118;56.468;84.952;2023-08-06T12:33:18;9.68;;;6.05;;
50231;SDS011;36118;56.468;84.952;2023-08-06T12:38:21;13.57;;;6.50;;
50231;SDS011;36118;56.468;84.952;2023-08-06T12:43:24;12.25;;;5.50;;
50231;SDS011;36118;56.468;84.952;2023-08-06T12:48:27;13.75;;;6.63;;
50231;SDS011;36118;56.468;84.952;2023-08-06T12:53:31;11.90;;;5.97;;
50231;SDS011;36118;56.468;84.952;2023-08-06T12:58:34;10.97;;;6.30;;
50231;SDS011;36118;56.468;84.952;2023-08-06T13:03:38;13.63;;;6.82;;
50231;SDS011;36118;56.468;84.952;2023-08-06T13:08:41;11.23;;;5.93;;
50231;SDS011;36118;56.468;84.952;2023-08-06T13:13:45;12.80;;;7.20;;
50231;SDS011;36118;56.468;84.952;2023-08-06T13:18:48;13.63;;;7.45;;
50231;SDS011;36118;56.468;84.952;2023-08-06T13:23:51;9.50;;;6.72;;
50231;SDS011;36118;56.468;84.952;2023-08-06T13:28:59;17.30;;;8.30;;
50231;SDS011;36118;56.468;84.952;2023-08-06T13:34:03;20.60;;;8.93;;
50231;SDS011;36118;56.468;84.952;2023-08-06T13:39:07;22.02;;;9.50;;
50231;SDS011;36118;56.468;84.952;2023-08-06T13:44:10;17.98;;;10.23;;
50231;SDS011;36118;56.468;84.952;2023-08-06T13:49:13;16.40;;;9.55;;
50231;SDS011;36118;56.468;84.952;2023-08-06T13:54:16;21.30;;;9.52;;
50231;SDS011;36118;56.468;84.952;2023-08-06T13:59:19;16.38;;;8.38;;
50231;SDS011;36118;56.468;84.952;2023-08-06T14:04:22;14.18;;;8.27;;
50231;SDS011;36118;56.468;84.952;2023-08-06T14:09:25;22.85;;;8.95;;
50231;SDS011;36118;56.468;84.952;2023-08-06T14:14:30;15.20;;;8.77;;
50231;SDS011;36118;56.468;84.952;2023-08-06T14:19:34;18.25;;;8.95;;
50231;SDS011;36118;56.468;84.952;2023-08-06T14:24:38;19.35;;;9.50;;
50231;SDS011;36118;56.468;84.952;2023-08-06T14:29:43;20.60;;;9.82;;
50231;SDS011;36118;56.468;84.952;2023-08-06T14:34:46;23.65;;;11.43;;
50231;SDS011;36118;56.468;84.952;2023-08-06T14:39:50;18.17;;;10.30;;
50231;SDS011;36118;56.468;84.952;2023-08-06T14:44:55;21.48;;;9.68;;
50231;SDS011;36118;56.468;84.952;2023-08-06T14:49:59;17.75;;;9.32;;
50231;SDS011;36118;56.468;84.952;2023-08-06T14:55:04;15.65;;;9.80;;
50231;SDS011;36118;56.468;84.952;2023-08-06T15:00:07;16.60;;;9.13;;
50231;SDS011;36118;56.468;84.952;2023-08-06T15:05:13;14.82;;;8.75;;
50231;SDS011;36118;56.468;84.952;2023-08-06T15:10:17;13.07;;;8.70;;
50231;SDS011;36118;56.468;84.952;2023-08-06T15:15:28;13.63;;;7.32;;
50231;SDS011;36118;56.468;84.952;2023-08-06T15:20:32;16.52;;;8.10;;
50231;SDS011;36118;56.468;84.952;2023-08-06T15:25:35;15.00;;;8.05;;
50231;SDS011;36118;56.468;84.952;2023-08-06T15:30:38;12.48;;;8.20;;
50231;SDS011;36118;56.468;84.952;2023-08-06T15:35:43;16.75;;;8.68;;
50231;SDS011;36118;56.468;84.952;2023-08-06T15:40:46;13.57;;;8.57;;
50231;SDS011;36118;56.468;84.952;2023-08-06T15:45:50;14.70;;;8.45;;
50231;SDS011;36118;56.468;84.952;2023-08-06T15:50:55;14.07;;;8.38;;
50231;SDS011;36118;56.468;84.952;2023-08-06T15:55:59;16.63;;;8.90;;
50231;SDS011;36118;56.468;84.952;2023-08-06T16:01:03;13.90;;;7.90;;
50231;SDS011;36118;56.468;84.952;2023-08-06T16:06:07;18.17;;;10.52;;
50231;SDS011;36118;56.468;84.952;2023-08-06T16:11:10;17.33;;;8.15;;
50231;SDS011;36118;56.468;84.952;2023-08-06T16:16:14;21.70;;;10.43;;
50231;SDS011;36118;56.468;84.952;2023-08-06T16:21:18;13.02;;;8.38;;
50231;SDS011;36118;56.468;84.952;2023-08-06T16:26:22;22.17;;;9.90;;
50231;SDS011;36118;56.468;84.952;2023-08-06T16:31:25;18.48;;;9.57;;
50231;SDS011;36118;56.468;84.952;2023-08-06T16:36:28;15.95;;;9.73;;
50231;SDS011;36118;56.468;84.952;2023-08-06T16:41:32;21.08;;;9.70;;
50231;SDS011;36118;56.468;84.952;2023-08-06T16:46:35;17.83;;;9.30;;
50231;SDS011;36118;56.468;84.952;2023-08-06T16:51:39;18.20;;;9.32;;
50231;SDS011;36118;56.468;84.952;2023-08-06T16:56:42;14.98;;;8.50;;
50231;SDS011;36118;56.468;84.952;2023-08-06T17:01:46;16.40;;;8.43;;
50231;SDS011;36118;56.468;84.952;2023-08-06T17:06:49;16.95;;;8.27;;
50231;SDS011;36118;56.468;84.952;2023-08-06T17:11:52;14.20;;;7.03;;
50231;SDS011;36118;56.468;84.952;2023-08-06T17:16:55;13.43;;;7.07;;
50231;SDS011;36118;56.468;84.952;2023-08-06T17:21:58;18.65;;;7.97;;
50231;SDS011;36118;56.468;84.952;2023-08-06T17:27:01;15.95;;;8.25;;
50231;SDS011;36118;56.468;84.952;2023-08-06T17:32:05;16.23;;;7.80;;
50231;SDS011;36118;56.468;84.952;2023-08-06T17:37:09;17.33;;;8.90;;
50231;SDS011;36118;56.468;84.952;2023-08-06T17:42:12;18.33;;;8.05;;
50231;SDS011;36118;56.468;84.952;2023-08-06T17:47:15;17.15;;;8.82;;
50231;SDS011;36118;56.468;84.952;2023-08-06T17:52:37;16.15;;;7.97;;
50231;SDS011;36118;56.468;84.952;2023-08-06T17:57:40;18.25;;;8.00;;
50231;SDS011;36118;56.468;84.952;2023-08-06T18:02:44;11.75;;;7.38;;
50231;SDS011;36118;56.468;84.952;2023-08-06T18:07:48;13.07;;;8.30;;
50231;SDS011;36118;56.468;84.952;2023-08-06T18:12:50;16.17;;;8.27;;
50231;SDS011;36118;56.468;84.952;2023-08-06T18:17:53;14.85;;;8.43;;
50231;SDS011;36118;56.468;84.952;2023-08-06T18:22:57;14.65;;;8.07;;
50231;SDS011;36118;56.468;84.952;2023-08-06T18:28:00;16.02;;;7.85;;
50231;SDS011;36118;56.468;84.952;2023-08-06T18:33:03;16.13;;;8.20;;
50231;SDS011;36118;56.468;84.952;2023-08-06T18:38:07;16.83;;;8.50;;
50231;SDS011;36118;56.468;84.952;2023-08-06T18:43:10;16.25;;;8.00;;
50231;SDS011;36118;56.468;84.952;2023-08-06T18:53:18;15.60;;;9.13;;
50231;SDS011;36118;56.468;84.952;2023-08-06T18:58:22;19.98;;;9.43;;
50231;SDS011;36118;56.468;84.952;2023-08-06T19:03:25;16.30;;;9.65;;
50231;SDS011;36118;56.468;84.952;2023-08-06T19:08:29;17.45;;;9.13;;
50231;SDS011;36118;56.468;84.952;2023-08-06T19:13:32;18.05;;;10.05;;
50231;SDS011;36118;56.468;84.952;2023-08-06T19:18:36;20.67;;;9.27;;
50231;SDS011;36118;56.468;84.952;2023-08-06T19:23:38;14.57;;;9.68;;
50231;SDS011;36118;56.468;84.952;2023-08-06T19:28:41;14.63;;;9.57;;
50231;SDS011;36118;56.468;84.952;2023-08-06T19:33:45;18.27;;;9.35;;
50231;SDS011;36118;56.468;84.952;2023-08-06T19:38:48;15.82;;;8.60;;
50231;SDS011;36118;56.468;84.952;2023-08-06T19:43:51;15.85;;;8.75;;
50231;SDS011;36118;56.468;84.952;2023-08-06T19:48:54;20.85;;;9.75;;
50231;SDS011;36118;56.468;84.952;2023-08-06T19:53:58;17.90;;;9.27;;
50231;SDS011;36118;56.468;84.952;2023-08-06T19:59:01;12.85;;;9.75;;
50231;SDS011;36118;56.468;84.952;2023-08-06T20:04:05;18.57;;;10.30;;
50231;SDS011;36118;56.468;84.952;2023-08-06T20:09:09;18.48;;;11.15;;
50231;SDS011;36118;56.468;84.952;2023-08-06T20:14:12;19.25;;;11.57;;
50231;SDS011;36118;56.468;84.952;2023-08-06T20:19:15;24.55;;;12.45;;
50231;SDS011;36118;56.468;84.952;2023-08-06T20:24:18;25.60;;;12.85;;
50231;SDS011;36118;56.468;84.952;2023-08-06T20:29:22;21.05;;;13.13;;
50231;SDS011;36118;56.468;84.952;2023-08-06T20:34:24;21.90;;;12.68;;
50231;SDS011;36118;56.468;84.952;2023-08-06T20:39:27;22.88;;;14.15;;
50231;SDS011;36118;56.468;84.952;2023-08-06T20:44:30;18.42;;;11.68;;
50231;SDS011;36118;56.468;84.952;2023-08-06T20:49:36;18.42;;;11.82;;
50231;SDS011;36118;56.468;84.952;2023-08-06T20:54:39;19.52;;;12.05;;
50231;SDS011;36118;56.468;84.952;2023-08-06T20:59:42;18.23;;;11.13;;
50231;SDS011;36118;56.468;84.952;2023-08-06T21:04:45;18.80;;;11.52;;
50231;SDS011;36118;56.468;84.952;2023-08-06T21:14:54;16.55;;;11.00;;
50231;SDS011;36118;56.468;84.952;2023-08-06T21:19:57;16.17;;;10.98;;
50231;SDS011;36118;56.468;84.952;2023-08-06T21:25:00;16.52;;;10.20;;
50231;SDS011;36118;56.468;84.952;2023-08-06T21:30:05;17.67;;;10.48;;
50231;SDS011;36118;56.468;84.952;2023-08-06T21:35:14;16.08;;;10.60;;
50231;SDS011;36118;56.468;84.952;2023-08-06T21:40:17;14.77;;;10.25;;
50231;SDS011;36118;56.468;84.952;2023-08-06T21:45:20;19.88;;;10.23;;
50231;SDS011;36118;56.468;84.952;2023-08-06T21:50:23;17.77;;;10.43;;
50231;SDS011;36118;56.468;84.952;2023-08-06T21:55:30;17.20;;;10.98;;
50231;SDS011;36118;56.468;84.952;2023-08-06T22:00:34;14.75;;;9.77;;
50231;SDS011;36118;56.468;84.952;2023-08-06T22:05:38;16.67;;;10.45;;
50231;SDS011;36118;56.468;84.952;2023-08-06T22:10:41;13.40;;;9.75;;
50231;SDS011;36118;56.468;84.952;2023-08-06T22:15:44;11.98;;;9.32;;
50231;SDS011;36118;56.468;84.952;2023-08-06T22:20:47;15.52;;;9.52;;
50231;SDS011;36118;56.468;84.952;2023-08-06T22:25:51;13.07;;;9.13;;
50231;SDS011;36118;56.468;84.952;2023-08-06T22:30:54;13.18;;;8.80;;
50231;SDS011;36118;56.468;84.952;2023-08-06T22:35:57;13.32;;;8.45;;
50231;SDS011;36118;56.468;84.952;2023-08-06T22:41:00;14.25;;;7.95;;
50231;SDS011;36118;56.468;84.952;2023-08-06T22:46:03;13.27;;;8.32;;
50231;SDS011;36118;56.468;84.952;2023-08-06T22:51:07;14.23;;;8.25;;
50231;SDS011;36118;56.468;84.952;2023-08-06T22:56:10;10.80;;;7.95;;
50231;SDS011;36118;56.468;84.952;2023-08-06T23:01:12;10.63;;;7.28;;
50231;SDS011;36118;56.468;84.952;2023-08-06T23:06:16;13.35;;;7.72;;
50231;SDS011;36118;56.468;84.952;2023-08-06T23:11:19;12.07;;;6.88;;
50231;SDS011;36118;56.468;84.952;2023-08-06T23:16:23;9.30;;;6.68;;
50231;SDS011;36118;56.468;84.952;2023-08-06T23:21:26;15.60;;;6.70;;
50231;SDS011;36118;56.468;84.952;2023-08-06T23:26:29;10.52;;;6.70;;
50231;SDS011;36118;56.468;84.952;2023-08-06T23:31:32;12.38;;;6.68;;
50231;SDS011;36118;56.468;84.952;2023-08-06T23:36:35;11.93;;;7.22;;
50231;SDS011;36118;56.468;84.952;2023-08-06T23:41:38;8.85;;;6.53;;
50231;SDS011;36118;56.468;84.952;2023-08-06T23:46:42;13.88;;;7.70;;
50231;SDS011;36118;56.468;84.952;2023-08-06T23:51:46;10.95;;;7.30;;
50231;SDS011;36118;56.468;84.952;2023-08-06T23:56:49;12.48;;;7.25;;
